Qway, New Mexico
Current Conditions -  °F | °C
As of 5:53 AM on Thursday 23 Oct 2014 (Local Time) from KTCC Reporting Station
Clear Clear  
Wind Chill: 54°   Ceiling: Unl
Heat Index: 54°   Visibility: 10mi
Dew Point: 51°   Wind: 9mph
Humidity: 90%   Direction: 280°W
Pressure: 30.1"   Gusts: NA
Location:  34.9519°N, 103.772°W
Report Text: KTCC 231153Z AUTO 28008KT 10SM CLR 12/11 A3010 RMK AO2 SLP155 70018 T01220106 10167 20117 53004
Loading
Personal Weather Stations






























Interactive Weather Map
Tropical Storm Tracking
New forecast layout! Learn more

10-Day Weather Forecast

Advertisements
Track Severe Weather on mobile